sensor_id;sensor_type;location;lat;lon;timestamp;P1;durP1;ratioP1;P2;durP2;ratioP2
40152;SDS011;26371;56.992;23.912;2022-10-31T00:01:36;5.68;;;0.80;;
40152;SDS011;26371;56.992;23.912;2022-10-31T00:04:05;8.00;;;1.92;;
40152;SDS011;26371;56.992;23.912;2022-10-31T00:06:36;6.53;;;1.08;;
40152;SDS011;26371;56.992;23.912;2022-10-31T00:09:04;7.78;;;1.15;;
40152;SDS011;26371;56.992;23.912;2022-10-31T00:11:33;4.82;;;1.05;;
40152;SDS011;26371;56.992;23.912;2022-10-31T00:14:02;6.37;;;1.00;;
40152;SDS011;26371;56.992;23.912;2022-10-31T00:16:30;8.30;;;1.23;;
40152;SDS011;26371;56.992;23.912;2022-10-31T00:19:00;7.27;;;1.00;;
40152;SDS011;26371;56.992;23.912;2022-10-31T00:21:30;6.80;;;1.00;;
40152;SDS011;26371;56.992;23.912;2022-10-31T00:26:30;5.70;;;1.02;;
40152;SDS011;26371;56.992;23.912;2022-10-31T00:28:59;7.15;;;1.05;;
40152;SDS011;26371;56.992;23.912;2022-10-31T00:31:28;8.88;;;1.13;;
40152;SDS011;26371;56.992;23.912;2022-10-31T00:33:58;4.65;;;0.95;;
40152;SDS011;26371;56.992;23.912;2022-10-31T00:36:29;8.18;;;1.00;;
40152;SDS011;26371;56.992;23.912;2022-10-31T00:38:58;5.10;;;0.90;;
40152;SDS011;26371;56.992;23.912;2022-10-31T00:43:57;4.75;;;0.80;;
40152;SDS011;26371;56.992;23.912;2022-10-31T00:46:26;8.05;;;1.27;;
40152;SDS011;26371;56.992;23.912;2022-10-31T00:48:55;8.57;;;1.27;;
40152;SDS011;26371;56.992;23.912;2022-10-31T00:51:24;9.67;;;1.40;;
40152;SDS011;26371;56.992;23.912;2022-10-31T00:53:53;10.80;;;1.40;;
40152;SDS011;26371;56.992;23.912;2022-10-31T00:56:21;7.30;;;1.02;;
40152;SDS011;26371;56.992;23.912;2022-10-31T00:58:52;9.77;;;1.23;;
40152;SDS011;26371;56.992;23.912;2022-10-31T01:01:21;4.90;;;0.93;;
40152;SDS011;26371;56.992;23.912;2022-10-31T01:03:50;5.25;;;0.90;;
40152;SDS011;26371;56.992;23.912;2022-10-31T01:06:19;6.07;;;1.15;;
40152;SDS011;26371;56.992;23.912;2022-10-31T01:08:47;10.25;;;1.20;;
40152;SDS011;26371;56.992;23.912;2022-10-31T01:11:18;6.40;;;1.00;;
40152;SDS011;26371;56.992;23.912;2022-10-31T01:13:49;12.75;;;1.45;;
40152;SDS011;26371;56.992;23.912;2022-10-31T01:16:21;3.60;;;0.95;;
40152;SDS011;26371;56.992;23.912;2022-10-31T01:18:52;6.80;;;0.82;;
40152;SDS011;26371;56.992;23.912;2022-10-31T01:21:21;8.90;;;0.80;;
40152;SDS011;26371;56.992;23.912;2022-10-31T01:23:52;7.30;;;1.08;;
40152;SDS011;26371;56.992;23.912;2022-10-31T01:26:23;8.57;;;1.17;;
40152;SDS011;26371;56.992;23.912;2022-10-31T01:28:53;7.10;;;1.10;;
40152;SDS011;26371;56.992;23.912;2022-10-31T01:31:25;6.90;;;1.35;;
40152;SDS011;26371;56.992;23.912;2022-10-31T01:33:57;7.13;;;1.83;;
40152;SDS011;26371;56.992;23.912;2022-10-31T01:36:26;12.55;;;1.20;;
40152;SDS011;26371;56.992;23.912;2022-10-31T01:38:58;4.15;;;1.40;;
40152;SDS011;26371;56.992;23.912;2022-10-31T01:41:28;7.93;;;1.23;;
40152;SDS011;26371;56.992;23.912;2022-10-31T01:44:00;7.70;;;1.15;;
40152;SDS011;26371;56.992;23.912;2022-10-31T01:46:34;9.57;;;0.98;;
40152;SDS011;26371;56.992;23.912;2022-10-31T01:49:09;6.95;;;1.00;;
40152;SDS011;26371;56.992;23.912;2022-10-31T01:51:43;5.50;;;1.10;;
40152;SDS011;26371;56.992;23.912;2022-10-31T01:54:16;8.38;;;1.25;;
40152;SDS011;26371;56.992;23.912;2022-10-31T01:56:48;5.45;;;0.90;;
40152;SDS011;26371;56.992;23.912;2022-10-31T01:59:20;11.93;;;1.30;;
40152;SDS011;26371;56.992;23.912;2022-10-31T02:01:53;5.03;;;0.82;;
40152;SDS011;26371;56.992;23.912;2022-10-31T02:04:23;6.93;;;0.90;;
40152;SDS011;26371;56.992;23.912;2022-10-31T02:06:53;9.73;;;1.50;;
40152;SDS011;26371;56.992;23.912;2022-10-31T02:09:26;6.15;;;0.93;;
40152;SDS011;26371;56.992;23.912;2022-10-31T02:11:57;5.93;;;0.80;;
40152;SDS011;26371;56.992;23.912;2022-10-31T02:14:28;9.13;;;1.30;;
40152;SDS011;26371;56.992;23.912;2022-10-31T02:16:59;9.68;;;1.10;;
40152;SDS011;26371;56.992;23.912;2022-10-31T02:19:35;4.53;;;0.70;;
40152;SDS011;26371;56.992;23.912;2022-10-31T02:22:12;4.18;;;0.85;;
40152;SDS011;26371;56.992;23.912;2022-10-31T02:24:55;8.65;;;1.10;;
40152;SDS011;26371;56.992;23.912;2022-10-31T02:27:50;6.38;;;0.93;;
40152;SDS011;26371;56.992;23.912;2022-10-31T02:30:32;7.10;;;1.33;;
40152;SDS011;26371;56.992;23.912;2022-10-31T02:33:14;4.97;;;1.13;;
40152;SDS011;26371;56.992;23.912;2022-10-31T02:35:51;10.20;;;1.40;;
40152;SDS011;26371;56.992;23.912;2022-10-31T02:38:31;5.32;;;1.08;;
40152;SDS011;26371;56.992;23.912;2022-10-31T02:41:15;5.22;;;0.90;;
40152;SDS011;26371;56.992;23.912;2022-10-31T02:44:00;9.85;;;1.50;;
40152;SDS011;26371;56.992;23.912;2022-10-31T02:46:38;6.65;;;1.25;;
40152;SDS011;26371;56.992;23.912;2022-10-31T02:49:18;8.82;;;1.10;;
40152;SDS011;26371;56.992;23.912;2022-10-31T02:51:52;10.55;;;1.48;;
40152;SDS011;26371;56.992;23.912;2022-10-31T02:54:21;7.55;;;0.98;;
40152;SDS011;26371;56.992;23.912;2022-10-31T02:56:53;7.00;;;0.90;;
40152;SDS011;26371;56.992;23.912;2022-10-31T02:59:26;10.80;;;2.75;;
40152;SDS011;26371;56.992;23.912;2022-10-31T03:02:01;12.98;;;1.38;;
40152;SDS011;26371;56.992;23.912;2022-10-31T03:08:00;12.13;;;1.20;;
40152;SDS011;26371;56.992;23.912;2022-10-31T03:10:37;8.10;;;1.23;;
40152;SDS011;26371;56.992;23.912;2022-10-31T03:13:11;8.52;;;1.58;;
40152;SDS011;26371;56.992;23.912;2022-10-31T03:15:48;6.72;;;0.95;;
40152;SDS011;26371;56.992;23.912;2022-10-31T03:18:20;10.80;;;1.17;;
40152;SDS011;26371;56.992;23.912;2022-10-31T03:20:58;9.40;;;1.30;;
40152;SDS011;26371;56.992;23.912;2022-10-31T03:23:30;6.38;;;1.13;;
40152;SDS011;26371;56.992;23.912;2022-10-31T03:26:03;8.73;;;1.15;;
40152;SDS011;26371;56.992;23.912;2022-10-31T03:28:37;6.32;;;1.17;;
40152;SDS011;26371;56.992;23.912;2022-10-31T03:31:09;6.78;;;1.17;;
40152;SDS011;26371;56.992;23.912;2022-10-31T03:33:43;6.45;;;1.20;;
40152;SDS011;26371;56.992;23.912;2022-10-31T03:36:15;10.93;;;1.42;;
40152;SDS011;26371;56.992;23.912;2022-10-31T03:38:45;6.30;;;1.25;;
40152;SDS011;26371;56.992;23.912;2022-10-31T03:41:18;7.93;;;1.42;;
40152;SDS011;26371;56.992;23.912;2022-10-31T03:43:52;11.75;;;1.52;;
40152;SDS011;26371;56.992;23.912;2022-10-31T03:46:24;10.80;;;1.35;;
40152;SDS011;26371;56.992;23.912;2022-10-31T03:48:56;8.98;;;1.42;;
40152;SDS011;26371;56.992;23.912;2022-10-31T03:51:27;4.53;;;1.42;;
40152;SDS011;26371;56.992;23.912;2022-10-31T03:54:07;6.28;;;1.20;;
40152;SDS011;26371;56.992;23.912;2022-10-31T03:56:40;7.95;;;1.40;;
40152;SDS011;26371;56.992;23.912;2022-10-31T03:59:13;7.38;;;1.20;;
40152;SDS011;26371;56.992;23.912;2022-10-31T04:01:49;7.60;;;1.15;;
40152;SDS011;26371;56.992;23.912;2022-10-31T04:04:20;7.95;;;1.02;;
40152;SDS011;26371;56.992;23.912;2022-10-31T04:06:51;6.65;;;1.02;;
40152;SDS011;26371;56.992;23.912;2022-10-31T04:09:22;6.80;;;1.23;;
40152;SDS011;26371;56.992;23.912;2022-10-31T04:11:54;7.93;;;1.10;;
40152;SDS011;26371;56.992;23.912;2022-10-31T04:14:42;6.40;;;1.10;;
40152;SDS011;26371;56.992;23.912;2022-10-31T04:17:14;8.10;;;1.27;;
40152;SDS011;26371;56.992;23.912;2022-10-31T04:19:45;12.18;;;1.27;;
40152;SDS011;26371;56.992;23.912;2022-10-31T04:22:16;10.50;;;1.25;;
40152;SDS011;26371;56.992;23.912;2022-10-31T04:24:45;8.43;;;1.05;;
40152;SDS011;26371;56.992;23.912;2022-10-31T04:27:16;6.90;;;1.23;;
40152;SDS011;26371;56.992;23.912;2022-10-31T04:29:44;9.05;;;1.73;;
40152;SDS011;26371;56.992;23.912;2022-10-31T04:32:17;7.03;;;1.02;;
40152;SDS011;26371;56.992;23.912;2022-10-31T04:34:45;8.95;;;1.08;;
40152;SDS011;26371;56.992;23.912;2022-10-31T04:37:16;6.03;;;0.90;;
40152;SDS011;26371;56.992;23.912;2022-10-31T04:39:46;6.53;;;1.33;;
40152;SDS011;26371;56.992;23.912;2022-10-31T04:42:34;7.32;;;0.85;;
40152;SDS011;26371;56.992;23.912;2022-10-31T04:45:05;11.18;;;1.33;;
40152;SDS011;26371;56.992;23.912;2022-10-31T04:47:35;4.55;;;0.80;;
40152;SDS011;26371;56.992;23.912;2022-10-31T04:50:05;7.93;;;0.82;;
40152;SDS011;26371;56.992;23.912;2022-10-31T04:52:39;9.00;;;2.35;;
40152;SDS011;26371;56.992;23.912;2022-10-31T04:55:10;7.45;;;1.35;;
40152;SDS011;26371;56.992;23.912;2022-10-31T04:57:58;9.07;;;1.17;;
40152;SDS011;26371;56.992;23.912;2022-10-31T05:00:28;7.43;;;1.27;;
40152;SDS011;26371;56.992;23.912;2022-10-31T05:02:57;6.38;;;1.05;;
40152;SDS011;26371;56.992;23.912;2022-10-31T05:05:30;9.38;;;1.02;;
40152;SDS011;26371;56.992;23.912;2022-10-31T05:08:03;9.77;;;1.20;;
40152;SDS011;26371;56.992;23.912;2022-10-31T05:10:32;5.82;;;1.20;;
40152;SDS011;26371;56.992;23.912;2022-10-31T05:13:02;10.55;;;1.50;;
40152;SDS011;26371;56.992;23.912;2022-10-31T05:16:07;6.47;;;1.50;;
40152;SDS011;26371;56.992;23.912;2022-10-31T05:18:48;8.63;;;1.50;;
40152;SDS011;26371;56.992;23.912;2022-10-31T05:21:43;8.10;;;1.60;;
40152;SDS011;26371;56.992;23.912;2022-10-31T05:24:13;7.67;;;2.07;;
40152;SDS011;26371;56.992;23.912;2022-10-31T05:26:46;9.02;;;2.58;;
40152;SDS011;26371;56.992;23.912;2022-10-31T05:29:15;7.55;;;2.35;;
40152;SDS011;26371;56.992;23.912;2022-10-31T05:31:44;10.18;;;2.45;;
40152;SDS011;26371;56.992;23.912;2022-10-31T05:34:32;8.13;;;2.25;;
40152;SDS011;26371;56.992;23.912;2022-10-31T05:37:24;9.73;;;2.85;;
40152;SDS011;26371;56.992;23.912;2022-10-31T05:39:54;8.67;;;3.10;;
40152;SDS011;26371;56.992;23.912;2022-10-31T05:42:25;10.93;;;3.58;;
40152;SDS011;26371;56.992;23.912;2022-10-31T05:44:54;15.63;;;4.70;;
40152;SDS011;26371;56.992;23.912;2022-10-31T05:47:49;18.65;;;6.03;;
40152;SDS011;26371;56.992;23.912;2022-10-31T05:50:38;20.83;;;6.07;;
40152;SDS011;26371;56.992;23.912;2022-10-31T05:53:10;19.90;;;6.80;;
40152;SDS011;26371;56.992;23.912;2022-10-31T05:55:41;18.60;;;6.25;;
40152;SDS011;26371;56.992;23.912;2022-10-31T05:58:13;20.75;;;6.18;;
40152;SDS011;26371;56.992;23.912;2022-10-31T06:00:49;24.23;;;7.10;;
40152;SDS011;26371;56.992;23.912;2022-10-31T06:03:19;15.00;;;5.55;;
40152;SDS011;26371;56.992;23.912;2022-10-31T06:05:54;14.73;;;5.78;;
40152;SDS011;26371;56.992;23.912;2022-10-31T06:08:28;17.88;;;5.38;;
40152;SDS011;26371;56.992;23.912;2022-10-31T06:11:02;14.48;;;5.82;;
40152;SDS011;26371;56.992;23.912;2022-10-31T06:14:09;12.95;;;6.45;;
40152;SDS011;26371;56.992;23.912;2022-10-31T06:16:49;13.48;;;6.07;;
40152;SDS011;26371;56.992;23.912;2022-10-31T06:19:38;11.57;;;5.07;;
40152;SDS011;26371;56.992;23.912;2022-10-31T06:22:12;14.43;;;6.05;;
40152;SDS011;26371;56.992;23.912;2022-10-31T06:24:42;16.48;;;6.55;;
40152;SDS011;26371;56.992;23.912;2022-10-31T06:27:39;12.75;;;4.63;;
40152;SDS011;26371;56.992;23.912;2022-10-31T06:30:13;16.67;;;4.28;;
40152;SDS011;26371;56.992;23.912;2022-10-31T06:32:44;9.82;;;2.85;;
40152;SDS011;26371;56.992;23.912;2022-10-31T06:35:13;11.73;;;3.03;;
40152;SDS011;26371;56.992;23.912;2022-10-31T06:37:42;13.10;;;3.23;;
40152;SDS011;26371;56.992;23.912;2022-10-31T06:40:36;12.05;;;2.85;;
40152;SDS011;26371;56.992;23.912;2022-10-31T06:43:26;10.43;;;2.90;;
40152;SDS011;26371;56.992;23.912;2022-10-31T06:46:11;10.80;;;2.20;;
40152;SDS011;26371;56.992;23.912;2022-10-31T06:49:00;10.52;;;2.63;;
40152;SDS011;26371;56.992;23.912;2022-10-31T06:51:38;8.48;;;2.33;;
40152;SDS011;26371;56.992;23.912;2022-10-31T06:54:06;9.32;;;2.50;;
40152;SDS011;26371;56.992;23.912;2022-10-31T06:56:35;12.80;;;2.43;;
40152;SDS011;26371;56.992;23.912;2022-10-31T06:59:06;7.65;;;2.70;;
40152;SDS011;26371;56.992;23.912;2022-10-31T07:01:58;15.45;;;2.30;;
40152;SDS011;26371;56.992;23.912;2022-10-31T07:06:56;6.93;;;2.08;;
40152;SDS011;26371;56.992;23.912;2022-10-31T07:09:24;10.10;;;2.40;;
40152;SDS011;26371;56.992;23.912;2022-10-31T07:11:56;9.23;;;2.10;;
40152;SDS011;26371;56.992;23.912;2022-10-31T07:14:26;8.00;;;2.60;;
40152;SDS011;26371;56.992;23.912;2022-10-31T07:16:55;5.22;;;2.33;;
40152;SDS011;26371;56.992;23.912;2022-10-31T07:19:31;11.93;;;3.70;;
40152;SDS011;26371;56.992;23.912;2022-10-31T07:22:00;14.35;;;5.47;;
40152;SDS011;26371;56.992;23.912;2022-10-31T07:24:29;11.00;;;4.35;;
40152;SDS011;26371;56.992;23.912;2022-10-31T07:27:17;13.50;;;6.03;;
40152;SDS011;26371;56.992;23.912;2022-10-31T07:29:48;15.65;;;5.68;;
40152;SDS011;26371;56.992;23.912;2022-10-31T07:32:17;12.95;;;5.72;;
40152;SDS011;26371;56.992;23.912;2022-10-31T07:34:52;10.95;;;3.85;;
40152;SDS011;26371;56.992;23.912;2022-10-31T07:37:22;13.65;;;5.97;;
40152;SDS011;26371;56.992;23.912;2022-10-31T07:39:56;12.50;;;5.03;;
40152;SDS011;26371;56.992;23.912;2022-10-31T07:42:25;11.10;;;4.23;;
40152;SDS011;26371;56.992;23.912;2022-10-31T07:44:55;8.27;;;3.75;;
40152;SDS011;26371;56.992;23.912;2022-10-31T07:47:53;12.38;;;2.63;;
40152;SDS011;26371;56.992;23.912;2022-10-31T07:50:42;11.50;;;3.45;;
40152;SDS011;26371;56.992;23.912;2022-10-31T07:53:45;10.93;;;4.00;;
40152;SDS011;26371;56.992;23.912;2022-10-31T07:56:22;12.10;;;2.83;;
40152;SDS011;26371;56.992;23.912;2022-10-31T07:58:51;13.05;;;3.17;;
40152;SDS011;26371;56.992;23.912;2022-10-31T08:01:22;13.60;;;3.53;;
40152;SDS011;26371;56.992;23.912;2022-10-31T08:04:13;8.48;;;2.65;;
40152;SDS011;26371;56.992;23.912;2022-10-31T08:07:00;11.20;;;3.78;;
40152;SDS011;26371;56.992;23.912;2022-10-31T08:09:33;9.30;;;3.53;;
40152;SDS011;26371;56.992;23.912;2022-10-31T08:12:12;9.48;;;2.83;;
40152;SDS011;26371;56.992;23.912;2022-10-31T08:14:41;8.75;;;2.75;;
40152;SDS011;26371;56.992;23.912;2022-10-31T08:17:12;11.88;;;3.65;;
40152;SDS011;26371;56.992;23.912;2022-10-31T08:19:49;10.55;;;2.30;;
40152;SDS011;26371;56.992;23.912;2022-10-31T08:22:21;6.38;;;2.40;;
40152;SDS011;26371;56.992;23.912;2022-10-31T08:24:50;8.23;;;2.38;;
40152;SDS011;26371;56.992;23.912;2022-10-31T08:27:19;10.77;;;1.85;;
40152;SDS011;26371;56.992;23.912;2022-10-31T08:29:48;13.47;;;2.77;;
40152;SDS011;26371;56.992;23.912;2022-10-31T08:32:18;6.63;;;1.88;;
40152;SDS011;26371;56.992;23.912;2022-10-31T08:34:56;7.60;;;2.30;;
40152;SDS011;26371;56.992;23.912;2022-10-31T08:37:40;6.40;;;1.98;;
40152;SDS011;26371;56.992;23.912;2022-10-31T08:40:10;9.48;;;2.10;;
40152;SDS011;26371;56.992;23.912;2022-10-31T08:42:39;8.90;;;2.13;;
40152;SDS011;26371;56.992;23.912;2022-10-31T08:45:08;7.07;;;2.07;;
40152;SDS011;26371;56.992;23.912;2022-10-31T08:47:39;7.57;;;1.88;;
40152;SDS011;26371;56.992;23.912;2022-10-31T08:50:08;12.98;;;2.75;;
40152;SDS011;26371;56.992;23.912;2022-10-31T08:52:36;8.50;;;2.17;;
40152;SDS011;26371;56.992;23.912;2022-10-31T08:55:26;6.05;;;2.10;;
40152;SDS011;26371;56.992;23.912;2022-10-31T08:58:02;7.70;;;2.10;;
40152;SDS011;26371;56.992;23.912;2022-10-31T09:00:39;8.60;;;2.05;;
40152;SDS011;26371;56.992;23.912;2022-10-31T09:03:17;10.25;;;2.38;;
40152;SDS011;26371;56.992;23.912;2022-10-31T09:05:46;13.18;;;2.63;;
40152;SDS011;26371;56.992;23.912;2022-10-31T09:08:15;11.75;;;2.97;;
40152;SDS011;26371;56.992;23.912;2022-10-31T09:10:46;7.15;;;2.50;;
40152;SDS011;26371;56.992;23.912;2022-10-31T09:13:22;7.47;;;2.08;;
40152;SDS011;26371;56.992;23.912;2022-10-31T09:16:20;10.75;;;2.17;;
40152;SDS011;26371;56.992;23.912;2022-10-31T09:18:50;9.30;;;2.23;;
40152;SDS011;26371;56.992;23.912;2022-10-31T09:21:18;6.60;;;1.63;;
40152;SDS011;26371;56.992;23.912;2022-10-31T09:23:47;5.87;;;1.67;;
40152;SDS011;26371;56.992;23.912;2022-10-31T09:26:16;4.83;;;1.60;;
40152;SDS011;26371;56.992;23.912;2022-10-31T09:28:54;6.20;;;1.65;;
40152;SDS011;26371;56.992;23.912;2022-10-31T09:31:24;8.52;;;1.98;;
40152;SDS011;26371;56.992;23.912;2022-10-31T09:34:05;5.90;;;1.50;;
40152;SDS011;26371;56.992;23.912;2022-10-31T09:36:37;5.72;;;1.15;;
40152;SDS011;26371;56.992;23.912;2022-10-31T09:39:10;7.57;;;1.65;;
40152;SDS011;26371;56.992;23.912;2022-10-31T09:41:47;5.67;;;1.50;;
40152;SDS011;26371;56.992;23.912;2022-10-31T09:44:29;9.00;;;1.40;;
40152;SDS011;26371;56.992;23.912;2022-10-31T09:47:21;7.13;;;1.38;;
40152;SDS011;26371;56.992;23.912;2022-10-31T09:50:19;6.93;;;1.60;;
40152;SDS011;26371;56.992;23.912;2022-10-31T09:52:54;6.75;;;1.65;;
40152;SDS011;26371;56.992;23.912;2022-10-31T09:55:31;7.07;;;1.20;;
40152;SDS011;26371;56.992;23.912;2022-10-31T09:58:05;5.28;;;1.17;;
40152;SDS011;26371;56.992;23.912;2022-10-31T10:00:36;5.03;;;1.10;;
40152;SDS011;26371;56.992;23.912;2022-10-31T10:03:07;5.70;;;0.97;;
40152;SDS011;26371;56.992;23.912;2022-10-31T10:05:45;4.68;;;1.00;;
40152;SDS011;26371;56.992;23.912;2022-10-31T10:08:31;6.35;;;1.30;;
40152;SDS011;26371;56.992;23.912;2022-10-31T10:11:35;9.70;;;1.27;;
40152;SDS011;26371;56.992;23.912;2022-10-31T10:14:19;7.10;;;1.30;;
40152;SDS011;26371;56.992;23.912;2022-10-31T10:17:11;7.10;;;1.27;;
40152;SDS011;26371;56.992;23.912;2022-10-31T10:19:53;6.97;;;1.42;;
40152;SDS011;26371;56.992;23.912;2022-10-31T10:22:50;3.67;;;0.80;;
40152;SDS011;26371;56.992;23.912;2022-10-31T10:25:25;5.53;;;1.38;;
40152;SDS011;26371;56.992;23.912;2022-10-31T10:28:04;5.65;;;1.50;;
40152;SDS011;26371;56.992;23.912;2022-10-31T10:30:46;4.95;;;1.33;;
40152;SDS011;26371;56.992;23.912;2022-10-31T10:33:18;6.85;;;1.17;;
40152;SDS011;26371;56.992;23.912;2022-10-31T10:35:50;4.00;;;0.77;;
40152;SDS011;26371;56.992;23.912;2022-10-31T10:38:26;5.18;;;1.15;;
40152;SDS011;26371;56.992;23.912;2022-10-31T10:41:03;6.22;;;1.58;;
40152;SDS011;26371;56.992;23.912;2022-10-31T10:43:37;5.95;;;1.10;;
40152;SDS011;26371;56.992;23.912;2022-10-31T10:46:17;6.75;;;1.00;;
40152;SDS011;26371;56.992;23.912;2022-10-31T10:49:08;10.13;;;1.67;;
40152;SDS011;26371;56.992;23.912;2022-10-31T10:51:56;9.47;;;1.30;;
40152;SDS011;26371;56.992;23.912;2022-10-31T10:54:53;3.88;;;0.90;;
40152;SDS011;26371;56.992;23.912;2022-10-31T10:57:34;5.13;;;1.00;;
40152;SDS011;26371;56.992;23.912;2022-10-31T11:00:16;4.15;;;0.95;;
40152;SDS011;26371;56.992;23.912;2022-10-31T11:02:46;5.60;;;0.80;;
40152;SDS011;26371;56.992;23.912;2022-10-31T11:05:19;5.40;;;0.80;;
40152;SDS011;26371;56.992;23.912;2022-10-31T11:07:53;4.25;;;0.65;;
40152;SDS011;26371;56.992;23.912;2022-10-31T11:10:23;5.10;;;0.60;;
40152;SDS011;26371;56.992;23.912;2022-10-31T11:13:00;4.95;;;0.98;;
40152;SDS011;26371;56.992;23.912;2022-10-31T11:15:49;7.70;;;0.90;;
40152;SDS011;26371;56.992;23.912;2022-10-31T11:18:21;6.85;;;0.85;;
40152;SDS011;26371;56.992;23.912;2022-10-31T11:20:54;3.35;;;0.70;;
40152;SDS011;26371;56.992;23.912;2022-10-31T11:23:25;4.90;;;0.90;;
40152;SDS011;26371;56.992;23.912;2022-10-31T11:25:57;5.88;;;0.80;;
40152;SDS011;26371;56.992;23.912;2022-10-31T11:28:28;9.57;;;0.98;;
40152;SDS011;26371;56.992;23.912;2022-10-31T11:30:59;4.05;;;1.05;;
40152;SDS011;26371;56.992;23.912;2022-10-31T11:33:34;6.95;;;0.90;;
40152;SDS011;26371;56.992;23.912;2022-10-31T11:36:13;4.63;;;0.85;;
40152;SDS011;26371;56.992;23.912;2022-10-31T11:38:44;5.40;;;1.00;;
40152;SDS011;26371;56.992;23.912;2022-10-31T11:41:15;6.60;;;1.00;;
40152;SDS011;26371;56.992;23.912;2022-10-31T11:43:46;6.47;;;1.10;;
40152;SDS011;26371;56.992;23.912;2022-10-31T11:46:19;7.32;;;1.40;;
40152;SDS011;26371;56.992;23.912;2022-10-31T11:48:52;5.68;;;1.10;;
40152;SDS011;26371;56.992;23.912;2022-10-31T11:51:23;7.50;;;1.20;;
40152;SDS011;26371;56.992;23.912;2022-10-31T11:53:55;9.23;;;1.50;;
40152;SDS011;26371;56.992;23.912;2022-10-31T11:56:38;3.88;;;0.95;;
40152;SDS011;26371;56.992;23.912;2022-10-31T11:59:15;7.32;;;1.30;;
40152;SDS011;26371;56.992;23.912;2022-10-31T12:01:49;6.68;;;1.00;;
40152;SDS011;26371;56.992;23.912;2022-10-31T12:04:21;4.10;;;0.77;;
40152;SDS011;26371;56.992;23.912;2022-10-31T12:06:56;6.72;;;1.10;;
40152;SDS011;26371;56.992;23.912;2022-10-31T12:12:05;6.10;;;0.98;;
40152;SDS011;26371;56.992;23.912;2022-10-31T12:14:50;6.50;;;1.33;;
40152;SDS011;26371;56.992;23.912;2022-10-31T12:17:29;8.27;;;1.10;;
40152;SDS011;26371;56.992;23.912;2022-10-31T12:20:06;4.13;;;1.00;;
40152;SDS011;26371;56.992;23.912;2022-10-31T12:22:46;8.57;;;1.02;;
40152;SDS011;26371;56.992;23.912;2022-10-31T12:25:23;5.95;;;0.98;;
40152;SDS011;26371;56.992;23.912;2022-10-31T12:28:03;3.58;;;0.85;;
40152;SDS011;26371;56.992;23.912;2022-10-31T12:30:46;6.55;;;0.98;;
40152;SDS011;26371;56.992;23.912;2022-10-31T12:33:26;6.78;;;1.05;;
40152;SDS011;26371;56.992;23.912;2022-10-31T12:36:09;5.03;;;0.90;;
40152;SDS011;26371;56.992;23.912;2022-10-31T12:38:52;3.78;;;1.02;;
40152;SDS011;26371;56.992;23.912;2022-10-31T12:41:37;6.60;;;1.10;;
40152;SDS011;26371;56.992;23.912;2022-10-31T12:44:18;4.50;;;0.90;;
40152;SDS011;26371;56.992;23.912;2022-10-31T12:47:07;7.78;;;1.20;;
40152;SDS011;26371;56.992;23.912;2022-10-31T12:49:54;7.07;;;1.02;;
40152;SDS011;26371;56.992;23.912;2022-10-31T12:52:36;4.72;;;1.10;;
40152;SDS011;26371;56.992;23.912;2022-10-31T12:55:17;9.00;;;1.52;;
40152;SDS011;26371;56.992;23.912;2022-10-31T12:57:57;7.25;;;1.50;;
40152;SDS011;26371;56.992;23.912;2022-10-31T13:00:31;5.63;;;1.25;;
40152;SDS011;26371;56.992;23.912;2022-10-31T13:03:17;7.38;;;1.73;;
40152;SDS011;26371;56.992;23.912;2022-10-31T13:05:51;5.17;;;1.50;;
40152;SDS011;26371;56.992;23.912;2022-10-31T13:08:26;4.55;;;1.10;;
40152;SDS011;26371;56.992;23.912;2022-10-31T13:11:04;6.10;;;1.10;;
40152;SDS011;26371;56.992;23.912;2022-10-31T13:13:36;6.70;;;1.20;;
40152;SDS011;26371;56.992;23.912;2022-10-31T13:16:11;7.25;;;1.20;;
40152;SDS011;26371;56.992;23.912;2022-10-31T13:18:44;5.47;;;1.27;;
40152;SDS011;26371;56.992;23.912;2022-10-31T13:21:17;7.00;;;1.38;;
40152;SDS011;26371;56.992;23.912;2022-10-31T13:23:49;6.40;;;1.40;;
40152;SDS011;26371;56.992;23.912;2022-10-31T13:26:21;6.43;;;1.50;;
40152;SDS011;26371;56.992;23.912;2022-10-31T13:29:02;6.55;;;1.15;;
40152;SDS011;26371;56.992;23.912;2022-10-31T13:31:41;7.80;;;1.50;;
40152;SDS011;26371;56.992;23.912;2022-10-31T13:34:15;7.13;;;1.15;;
40152;SDS011;26371;56.992;23.912;2022-10-31T13:36:52;7.15;;;1.30;;
40152;SDS011;26371;56.992;23.912;2022-10-31T13:39:32;7.70;;;1.42;;
40152;SDS011;26371;56.992;23.912;2022-10-31T13:42:11;5.78;;;1.25;;
40152;SDS011;26371;56.992;23.912;2022-10-31T13:44:46;8.48;;;1.38;;
40152;SDS011;26371;56.992;23.912;2022-10-31T13:47:22;3.73;;;1.23;;
40152;SDS011;26371;56.992;23.912;2022-10-31T13:50:03;5.57;;;1.30;;
40152;SDS011;26371;56.992;23.912;2022-10-31T13:52:34;5.50;;;1.20;;
40152;SDS011;26371;56.992;23.912;2022-10-31T13:55:04;6.70;;;1.40;;
40152;SDS011;26371;56.992;23.912;2022-10-31T13:57:54;5.05;;;1.20;;
40152;SDS011;26371;56.992;23.912;2022-10-31T14:00:24;6.15;;;1.75;;
40152;SDS011;26371;56.992;23.912;2022-10-31T14:02:56;6.57;;;1.40;;
40152;SDS011;26371;56.992;23.912;2022-10-31T14:05:26;6.22;;;1.50;;
40152;SDS011;26371;56.992;23.912;2022-10-31T14:07:58;7.90;;;1.70;;
40152;SDS011;26371;56.992;23.912;2022-10-31T14:10:30;8.00;;;1.48;;
40152;SDS011;26371;56.992;23.912;2022-10-31T14:13:04;5.35;;;1.30;;
40152;SDS011;26371;56.992;23.912;2022-10-31T14:15:36;8.07;;;1.67;;
40152;SDS011;26371;56.992;23.912;2022-10-31T14:18:19;8.52;;;1.40;;
40152;SDS011;26371;56.992;23.912;2022-10-31T14:20:51;7.68;;;2.03;;
40152;SDS011;26371;56.992;23.912;2022-10-31T14:23:34;6.20;;;1.30;;
40152;SDS011;26371;56.992;23.912;2022-10-31T14:26:16;6.70;;;1.25;;
40152;SDS011;26371;56.992;23.912;2022-10-31T14:28:47;4.65;;;1.17;;
40152;SDS011;26371;56.992;23.912;2022-10-31T14:31:28;5.57;;;1.30;;
40152;SDS011;26371;56.992;23.912;2022-10-31T14:34:15;6.10;;;1.30;;
40152;SDS011;26371;56.992;23.912;2022-10-31T14:37:00;5.80;;;1.30;;
40152;SDS011;26371;56.992;23.912;2022-10-31T14:39:46;3.83;;;1.08;;
40152;SDS011;26371;56.992;23.912;2022-10-31T14:42:30;10.00;;;1.52;;
40152;SDS011;26371;56.992;23.912;2022-10-31T14:45:15;4.60;;;1.48;;
40152;SDS011;26371;56.992;23.912;2022-10-31T14:47:58;7.45;;;1.20;;
40152;SDS011;26371;56.992;23.912;2022-10-31T14:50:42;5.80;;;1.40;;
40152;SDS011;26371;56.992;23.912;2022-10-31T14:53:17;4.57;;;1.60;;
40152;SDS011;26371;56.992;23.912;2022-10-31T14:55:49;5.00;;;1.35;;
40152;SDS011;26371;56.992;23.912;2022-10-31T14:58:21;7.90;;;2.17;;
40152;SDS011;26371;56.992;23.912;2022-10-31T15:00:55;9.60;;;2.10;;
40152;SDS011;26371;56.992;23.912;2022-10-31T15:03:28;6.88;;;2.10;;
40152;SDS011;26371;56.992;23.912;2022-10-31T15:06:02;6.47;;;2.10;;
40152;SDS011;26371;56.992;23.912;2022-10-31T15:08:34;8.15;;;1.95;;
40152;SDS011;26371;56.992;23.912;2022-10-31T15:11:10;8.60;;;2.25;;
40152;SDS011;26371;56.992;23.912;2022-10-31T15:13:44;5.97;;;1.90;;
40152;SDS011;26371;56.992;23.912;2022-10-31T15:16:14;9.27;;;2.15;;
40152;SDS011;26371;56.992;23.912;2022-10-31T15:18:47;7.47;;;1.80;;
40152;SDS011;26371;56.992;23.912;2022-10-31T15:21:21;6.97;;;2.00;;
40152;SDS011;26371;56.992;23.912;2022-10-31T15:23:52;7.85;;;2.40;;
40152;SDS011;26371;56.992;23.912;2022-10-31T15:26:24;8.05;;;1.90;;
40152;SDS011;26371;56.992;23.912;2022-10-31T15:28:59;7.22;;;1.95;;
40152;SDS011;26371;56.992;23.912;2022-10-31T15:31:28;5.03;;;1.92;;
40152;SDS011;26371;56.992;23.912;2022-10-31T15:33:59;5.97;;;2.72;;